Time;durP1;ratioP1;P1;durP2;ratioP2;P2;SDS_P1;SDS_P2;PMS_P1;PMS_P2;Temp;Humidity;BMP_temperature;BMP_pressure;BME280_temperature;BME280_humidity;BME280_pressure;Samples;Min_cycle;Max_cycle;Signal;HPM_P1;HPM_P2
2022/01/10 00:00:13;;;;;;;54.37;36.87;;;4.00;92.60;;;;;;5055379;28;20202;-68
2022/01/10 00:02:42;;;;;;;58.70;37.97;;;4.00;92.60;;;;;;5055760;28;20215;-68
2022/01/10 00:05:10;;;;;;;53.73;37.13;;;4.00;92.70;;;;;;5053908;28;20202;-68
2022/01/10 00:07:37;;;;;;;57.07;37.13;;;4.00;92.60;;;;;;5038912;28;20639;-68
2022/01/10 00:10:04;;;;;;;60.20;40.03;;;4.00;92.50;;;;;;5028296;28;20238;-68
2022/01/10 00:12:31;;;;;;;57.77;37.57;;;4.00;92.50;;;;;;5058376;28;20207;-68
2022/01/10 00:14:58;;;;;;;55.37;37.60;;;4.00;92.50;;;;;;5040102;28;20215;-68
2022/01/10 00:17:25;;;;;;;56.53;37.23;;;4.00;92.40;;;;;;5057068;28;20203;-68
2022/01/10 00:19:52;;;;;;;56.33;37.03;;;3.90;92.40;;;;;;5058236;28;20207;-68
2022/01/10 00:22:20;;;;;;;58.43;37.37;;;4.00;92.40;;;;;;5039234;28;20208;-68
2022/01/10 00:24:47;;;;;;;59.07;37.47;;;4.00;92.30;;;;;;5057995;28;20221;-68
2022/01/10 00:27:14;;;;;;;59.67;39.57;;;3.90;92.40;;;;;;5053937;28;20210;-68
2022/01/10 00:29:41;;;;;;;56.67;38.80;;;4.00;92.30;;;;;;5037161;28;20228;-68
2022/01/10 00:32:08;;;;;;;59.30;39.03;;;4.00;92.30;;;;;;5036002;28;20210;-68
2022/01/10 00:34:35;;;;;;;59.73;37.80;;;4.00;92.30;;;;;;5055046;28;20256;-68
2022/01/10 00:37:03;;;;;;;57.40;39.17;;;4.00;92.30;;;;;;5036093;28;20542;-68
2022/01/10 00:39:31;;;;;;;60.23;37.20;;;4.00;92.30;;;;;;5038550;28;20665;-68
2022/01/10 00:41:58;;;;;;;55.13;36.57;;;4.00;92.30;;;;;;5037601;28;20218;-68
2022/01/10 00:44:27;;;;;;;52.77;34.23;;;3.90;92.00;;;;;;5037302;28;20222;-67
2022/01/10 00:46:54;;;;;;;60.27;38.77;;;3.90;91.80;;;;;;5034899;28;20633;-68
2022/01/10 00:49:21;;;;;;;55.63;35.20;;;3.90;91.90;;;;;;5053840;28;20284;-68
2022/01/10 00:51:48;;;;;;;57.57;37.87;;;3.80;92.00;;;;;;5054958;28;20199;-68
2022/01/10 00:54:15;;;;;;;56.03;36.47;;;3.80;92.10;;;;;;5037879;28;20242;-68
2022/01/10 00:56:42;;;;;;;55.33;34.77;;;3.80;92.10;;;;;;5056519;28;20243;-68
2022/01/10 00:59:09;;;;;;;59.67;37.17;;;3.70;92.20;;;;;;5057497;28;20214;-68
2022/01/10 01:01:36;;;;;;;52.60;34.90;;;3.70;92.10;;;;;;5037478;28;20558;-68
2022/01/10 01:04:04;;;;;;;57.53;35.73;;;3.70;92.20;;;;;;5038974;28;20208;-68
2022/01/10 01:06:31;;;;;;;55.20;34.70;;;3.70;92.20;;;;;;5059657;28;20194;-68
2022/01/10 01:09:03;;;;;;;56.23;35.17;;;3.70;92.20;;;;;;5040534;28;20241;-68
2022/01/10 01:11:55;;;;;;;51.23;34.30;;;3.70;92.20;;;;;;5057716;28;20202;-68
2022/01/10 01:14:36;;;;;;;58.13;34.23;;;3.70;92.00;;;;;;5039972;28;20216;-68
2022/01/10 01:17:14;;;;;;;52.03;33.83;;;3.70;91.90;;;;;;5022106;28;20209;-68
2022/01/10 01:25:13;;;;;;;50.70;34.00;;;3.70;91.80;;;;;;5037851;28;20210;-67
2022/01/10 01:27:42;;;;;;;49.83;32.40;;;3.70;91.80;;;;;;5060102;28;20290;-67
2022/01/10 01:30:10;;;;;;;49.93;33.97;;;3.70;91.60;;;;;;5042652;28;20229;-67
2022/01/10 01:32:38;;;;;;;50.03;32.77;;;3.70;91.60;;;;;;5054255;28;20204;-67
2022/01/10 01:35:07;;;;;;;50.87;30.83;;;3.80;91.70;;;;;;5036237;28;20207;-67
2022/01/10 01:37:36;;;;;;;46.17;30.53;;;3.80;91.80;;;;;;5054980;28;20197;-67
2022/01/10 01:40:08;;;;;;;47.63;31.57;;;3.80;91.70;;;;;;5037779;28;20218;-68
2022/01/10 01:42:38;;;;;;;45.60;31.40;;;3.80;91.60;;;;;;5034542;28;20217;-68
2022/01/10 01:45:11;;;;;;;46.03;32.67;;;3.80;91.60;;;;;;5039814;28;20216;-68
2022/01/10 01:47:39;;;;;;;49.80;31.57;;;3.90;91.60;;;;;;5023158;28;20211;-68
2022/01/10 01:50:16;;;;;;;45.83;31.53;;;3.90;91.60;;;;;;5040128;28;20329;-67
2022/01/10 01:52:44;;;;;;;49.00;31.30;;;3.90;91.60;;;;;;5024466;28;20202;-67
2022/01/10 01:55:11;;;;;;;49.37;30.17;;;3.90;91.50;;;;;;5052063;28;20629;-68
2022/01/10 01:57:39;;;;;;;43.10;29.80;;;3.90;91.40;;;;;;5037141;28;20213;-68
2022/01/10 02:00:07;;;;;;;44.23;29.30;;;3.90;91.40;;;;;;5039469;28;20227;-68
2022/01/10 02:02:43;;;;;;;44.33;29.17;;;4.00;91.40;;;;;;5043051;28;20212;-68
2022/01/10 02:05:11;;;;;;;46.07;30.03;;;4.00;91.40;;;;;;5041244;28;20297;-68
2022/01/10 02:07:38;;;;;;;42.63;28.57;;;4.00;91.40;;;;;;5041801;28;20568;-68
2022/01/10 02:10:06;;;;;;;39.93;28.60;;;4.00;91.10;;;;;;5042010;28;20318;-68
2022/01/10 02:12:33;;;;;;;45.47;29.57;;;4.00;90.80;;;;;;5055754;28;20250;-67
2022/01/10 02:15:04;;;;;;;44.73;28.27;;;4.00;90.70;;;;;;5041184;28;20230;-67
2022/01/10 02:17:37;;;;;;;40.23;28.03;;;4.10;90.40;;;;;;5041053;28;20211;-67
2022/01/10 02:20:10;;;;;;;41.97;27.97;;;4.00;90.20;;;;;;5056871;28;20692;-67
2022/01/10 02:22:38;;;;;;;42.03;27.10;;;4.00;90.20;;;;;;5039566;28;20211;-68
2022/01/10 02:25:24;;;;;;;44.60;27.40;;;3.90;90.20;;;;;;5040189;28;20254;-68
2022/01/10 02:27:53;;;;;;;42.70;29.10;;;3.90;90.10;;;;;;5040014;28;20251;-68
2022/01/10 02:30:20;;;;;;;44.70;29.57;;;3.90;90.20;;;;;;5040331;28;20231;-68
2022/01/10 02:32:48;;;;;;;47.93;30.27;;;3.90;90.30;;;;;;5042282;28;20637;-68
2022/01/10 02:35:20;;;;;;;49.17;31.90;;;3.90;90.30;;;;;;5028913;28;20520;-68
2022/01/10 02:37:49;;;;;;;51.63;33.33;;;3.80;90.40;;;;;;5040795;28;20230;-68
2022/01/10 02:40:19;;;;;;;49.27;31.13;;;3.80;90.40;;;;;;5059552;28;20206;-68
2022/01/10 02:42:47;;;;;;;50.83;33.60;;;3.80;90.50;;;;;;5038890;28;20211;-68
2022/01/10 02:45:14;;;;;;;52.70;33.00;;;3.80;90.40;;;;;;5042784;28;20311;-68
2022/01/10 02:47:42;;;;;;;55.07;34.17;;;3.70;90.50;;;;;;5041581;28;20216;-67
2022/01/10 02:50:10;;;;;;;51.17;31.77;;;3.70;90.70;;;;;;5043332;28;20239;-67
2022/01/10 02:52:40;;;;;;;51.27;32.40;;;3.70;90.80;;;;;;5043763;28;20213;-68
2022/01/10 02:55:09;;;;;;;54.20;34.63;;;3.60;90.90;;;;;;5044567;28;20247;-68
2022/01/10 02:57:37;;;;;;;56.67;36.87;;;3.50;91.00;;;;;;5025748;28;20242;-68
2022/01/10 03:00:13;;;;;;;59.23;36.40;;;3.50;91.30;;;;;;5038659;28;20639;-68
2022/01/10 03:02:42;;;;;;;61.47;37.83;;;3.40;91.40;;;;;;5049991;28;20210;-68
2022/01/10 03:05:10;;;;;;;58.97;39.13;;;3.30;91.70;;;;;;5035747;28;20218;-68
2022/01/10 03:07:38;;;;;;;60.27;37.63;;;3.40;91.80;;;;;;5038284;28;20210;-68
2022/01/10 03:10:07;;;;;;;58.87;37.63;;;3.30;92.00;;;;;;5056726;28;20227;-68
2022/01/10 03:12:35;;;;;;;61.53;38.50;;;3.30;92.10;;;;;;5027091;28;20249;-68
2022/01/10 03:15:07;;;;;;;55.43;37.50;;;3.30;92.30;;;;;;5038811;28;20664;-68
2022/01/10 03:17:35;;;;;;;61.63;38.80;;;3.30;92.40;;;;;;5024093;28;20265;-67
2022/01/10 03:20:04;;;;;;;66.97;41.17;;;3.20;92.60;;;;;;5023652;28;20710;-67
2022/01/10 03:22:31;;;;;;;68.20;41.20;;;3.20;92.80;;;;;;5023492;28;20556;-67
2022/01/10 03:24:59;;;;;;;67.77;39.70;;;3.20;93.00;;;;;;5041940;28;20212;-67
2022/01/10 03:27:28;;;;;;;65.47;40.13;;;3.20;93.10;;;;;;5040332;28;20212;-68
2022/01/10 03:29:55;;;;;;;64.93;39.03;;;3.20;93.20;;;;;;5040588;28;20313;-68
2022/01/10 03:32:24;;;;;;;63.47;40.00;;;3.10;93.30;;;;;;5041698;28;20222;-68
2022/01/10 03:34:57;;;;;;;67.20;41.67;;;3.10;93.40;;;;;;5039644;28;20219;-68
2022/01/10 03:37:25;;;;;;;65.57;40.53;;;3.10;93.40;;;;;;5042315;28;20215;-68
2022/01/10 03:39:53;;;;;;;72.30;42.60;;;3.00;93.50;;;;;;5040475;28;20217;-68
2022/01/10 03:42:20;;;;;;;63.60;40.50;;;3.10;93.60;;;;;;5041576;28;20541;-67
2022/01/10 03:44:48;;;;;;;67.73;41.07;;;3.10;93.70;;;;;;5045122;28;20251;-67
2022/01/10 03:47:18;;;;;;;61.37;40.30;;;3.10;93.60;;;;;;5044562;28;20266;-67
2022/01/10 03:49:45;;;;;;;68.90;43.03;;;3.00;93.60;;;;;;5034582;28;20614;-68
2022/01/10 03:52:13;;;;;;;68.87;41.00;;;3.00;93.70;;;;;;5043455;28;20560;-68
2022/01/10 03:54:40;;;;;;;65.63;41.20;;;3.00;93.70;;;;;;5021763;28;20268;-68
2022/01/10 03:57:08;;;;;;;67.13;41.40;;;3.00;93.70;;;;;;5022013;28;20302;-68
2022/01/10 03:59:35;;;;;;;71.57;41.33;;;3.00;93.80;;;;;;5054381;28;20295;-67
2022/01/10 04:02:04;;;;;;;74.00;43.30;;;3.00;94.00;;;;;;5056136;28;20547;-67
2022/01/10 04:04:35;;;;;;;69.73;40.67;;;3.00;93.80;;;;;;5029412;28;20206;-67
2022/01/10 04:07:03;;;;;;;70.63;44.43;;;3.00;93.80;;;;;;5039435;28;20215;-67
2022/01/10 04:09:31;;;;;;;71.30;43.37;;;3.00;93.80;;;;;;5040645;28;20743;-67
2022/01/10 04:11:58;;;;;;;78.83;43.47;;;3.00;93.80;;;;;;5039849;28;20222;-67
2022/01/10 04:14:25;;;;;;;67.37;41.10;;;3.00;93.80;;;;;;5040169;28;20591;-67
2022/01/10 04:16:52;;;;;;;71.83;43.40;;;3.00;93.80;;;;;;5035384;28;20217;-67
2022/01/10 04:19:19;;;;;;;72.07;42.50;;;3.00;93.70;;;;;;5038171;28;20600;-68
2022/01/10 04:21:46;;;;;;;76.67;45.37;;;3.00;93.70;;;;;;5037985;28;20230;-67
2022/01/10 04:24:15;;;;;;;75.23;44.93;;;3.10;93.60;;;;;;5037074;28;20537;-67
2022/01/10 04:26:43;;;;;;;70.00;42.40;;;3.10;93.70;;;;;;5038398;28;20220;-67
2022/01/10 04:29:13;;;;;;;67.97;41.70;;;3.10;93.70;;;;;;5022310;28;20565;-67
2022/01/10 04:31:40;;;;;;;65.67;41.60;;;3.10;93.70;;;;;;5037007;28;20207;-67
2022/01/10 04:34:07;;;;;;;72.37;43.60;;;3.20;93.60;;;;;;5056537;28;20195;-67
2022/01/10 04:36:34;;;;;;;64.80;40.63;;;3.20;93.60;;;;;;5033975;28;20213;-68
2022/01/10 04:39:02;;;;;;;70.00;40.53;;;3.10;93.50;;;;;;5040323;28;20214;-68
2022/01/10 04:41:32;;;;;;;68.30;42.40;;;3.20;93.50;;;;;;5020243;28;20226;-68
2022/01/10 04:44:00;;;;;;;68.40;43.00;;;3.20;93.50;;;;;;5022592;28;20207;-68
2022/01/10 04:46:27;;;;;;;67.10;42.63;;;3.20;93.50;;;;;;5037640;28;20654;-68
2022/01/10 04:48:55;;;;;;;67.97;42.10;;;3.20;93.40;;;;;;5018966;28;20285;-68
2022/01/10 04:51:22;;;;;;;68.97;41.93;;;3.20;93.40;;;;;;5037287;28;20239;-68
2022/01/10 04:53:51;;;;;;;66.40;42.60;;;3.20;93.40;;;;;;5038577;28;20207;-68
2022/01/10 04:56:20;;;;;;;73.10;44.37;;;3.20;93.40;;;;;;5038953;28;20652;-68
2022/01/10 04:58:50;;;;;;;70.77;41.23;;;3.30;93.40;;;;;;5039214;28;20269;-67
2022/01/10 05:01:19;;;;;;;68.80;42.83;;;3.30;93.30;;;;;;5039379;28;20217;-67
2022/01/10 05:03:50;;;;;;;69.50;43.13;;;3.30;93.20;;;;;;5026404;28;20204;-67
2022/01/10 05:06:17;;;;;;;71.13;42.57;;;3.30;93.20;;;;;;5059539;28;20210;-67
2022/01/10 05:08:45;;;;;;;70.33;43.90;;;3.30;93.20;;;;;;5024869;28;20276;-67
2022/01/10 05:11:22;;;;;;;67.97;42.00;;;3.30;93.20;;;;;;5023875;28;20229;-67
2022/01/10 05:13:49;;;;;;;67.60;41.73;;;3.30;93.20;;;;;;5043541;28;20248;-67
2022/01/10 05:16:18;;;;;;;67.60;42.93;;;3.20;93.20;;;;;;5039674;28;20556;-68
2022/01/10 05:18:46;;;;;;;70.10;41.37;;;3.30;93.30;;;;;;5032308;28;20226;-68
2022/01/10 05:21:16;;;;;;;64.30;40.70;;;3.20;93.20;;;;;;5043381;28;20574;-68
2022/01/10 05:23:43;;;;;;;67.00;41.83;;;3.30;93.60;;;;;;5047271;28;20210;-68
2022/01/10 05:26:10;;;;;;;69.23;42.97;;;3.30;93.30;;;;;;5049335;28;20215;-68
2022/01/10 05:28:39;;;;;;;66.83;41.73;;;3.30;93.30;;;;;;5041133;28;20306;-68
2022/01/10 05:31:06;;;;;;;67.87;40.07;;;3.30;93.30;;;;;;5039769;28;20230;-68
2022/01/10 05:33:45;;;;;;;66.90;41.40;;;3.30;93.20;;;;;;5056478;28;20226;-68
2022/01/10 05:36:12;;;;;;;69.90;41.03;;;3.30;93.20;;;;;;5057863;28;20619;-68
2022/01/10 05:38:41;;;;;;;70.97;42.43;;;3.30;93.20;;;;;;5024640;28;20214;-68
2022/01/10 05:41:08;;;;;;;66.10;40.30;;;3.30;93.20;;;;;;5057605;28;20215;-68
2022/01/10 05:43:36;;;;;;;62.07;41.07;;;3.30;93.10;;;;;;5041050;28;20297;-68
2022/01/10 05:46:06;;;;;;;66.83;41.87;;;3.40;93.10;;;;;;5039595;28;20242;-68
2022/01/10 05:48:36;;;;;;;64.10;41.27;;;3.40;93.10;;;;;;5040795;28;20207;-68
2022/01/10 05:51:03;;;;;;;70.73;42.10;;;3.40;93.10;;;;;;5022648;28;20236;-68
2022/01/10 05:53:34;;;;;;;60.70;39.57;;;3.40;93.10;;;;;;5041676;28;20610;-68
2022/01/10 05:56:01;;;;;;;63.87;40.53;;;3.40;93.10;;;;;;5041596;28;20243;-68
2022/01/10 05:58:34;;;;;;;62.60;40.23;;;3.40;93.00;;;;;;5041961;28;20298;-68
2022/01/10 06:01:05;;;;;;;66.67;42.77;;;3.40;93.00;;;;;;5041644;28;20561;-68
2022/01/10 06:03:32;;;;;;;63.87;39.40;;;3.40;93.00;;;;;;5056947;28;20253;-68
2022/01/10 06:06:05;;;;;;;59.87;39.17;;;3.40;92.90;;;;;;5041226;28;20561;-68
2022/01/10 06:08:32;;;;;;;68.00;42.27;;;3.40;92.90;;;;;;5060825;28;20211;-68
2022/01/10 06:10:59;;;;;;;69.53;41.97;;;3.40;92.90;;;;;;5041355;28;20324;-68
2022/01/10 06:13:40;;;;;;;68.63;41.20;;;3.40;92.80;;;;;;5042418;28;20261;-68
2022/01/10 06:16:07;;;;;;;67.00;42.27;;;3.30;92.80;;;;;;5039554;28;20214;-68
2022/01/10 06:18:39;;;;;;;62.47;39.93;;;3.30;92.70;;;;;;5039380;28;20206;-68
2022/01/10 06:21:06;;;;;;;63.80;40.87;;;3.30;92.70;;;;;;5023916;28;20213;-68
2022/01/10 06:23:35;;;;;;;66.07;41.57;;;3.30;93.00;;;;;;5045972;28;20215;-68
2022/01/10 06:26:02;;;;;;;67.40;41.77;;;3.30;92.70;;;;;;5058165;28;20270;-68
2022/01/10 06:28:30;;;;;;;69.20;41.50;;;3.30;92.80;;;;;;5040478;28;20656;-68
2022/01/10 06:30:58;;;;;;;62.13;39.97;;;3.30;92.80;;;;;;5040896;28;20226;-68
2022/01/10 06:33:32;;;;;;;68.37;42.10;;;3.20;92.80;;;;;;5038244;28;20312;-68
2022/01/10 06:35:59;;;;;;;64.33;41.23;;;3.20;92.80;;;;;;5040914;28;20213;-68
2022/01/10 06:38:27;;;;;;;68.17;41.47;;;3.20;92.80;;;;;;5042142;28;20221;-68
2022/01/10 06:40:55;;;;;;;66.07;40.63;;;3.20;92.90;;;;;;5024404;28;20213;-67
2022/01/10 06:43:22;;;;;;;62.60;39.93;;;3.20;92.90;;;;;;5041964;28;20287;-68
2022/01/10 06:45:50;;;;;;;63.30;40.57;;;3.10;92.90;;;;;;5043531;28;20609;-67
2022/01/10 06:48:17;;;;;;;64.93;40.77;;;3.10;92.90;;;;;;5037391;28;20310;-67
2022/01/10 06:50:48;;;;;;;69.70;40.73;;;3.10;92.90;;;;;;5037382;28;20230;-67
2022/01/10 06:53:17;;;;;;;61.00;40.33;;;3.10;92.90;;;;;;5034644;28;20604;-67
2022/01/10 06:55:46;;;;;;;62.80;38.57;;;3.10;92.90;;;;;;5037867;28;20580;-67
2022/01/10 06:58:14;;;;;;;70.50;40.67;;;3.10;92.90;;;;;;5056721;28;20662;-67
2022/01/10 07:00:42;;;;;;;63.57;39.07;;;3.10;92.90;;;;;;5020171;28;20301;-67
2022/01/10 07:03:10;;;;;;;62.70;40.33;;;3.10;92.90;;;;;;5045309;28;20215;-68
2022/01/10 07:05:42;;;;;;;61.00;39.07;;;3.10;92.90;;;;;;5036757;28;20226;-69
2022/01/10 07:08:14;;;;;;;60.77;38.00;;;3.10;93.00;;;;;;5039210;28;20226;-68
2022/01/10 07:10:54;;;;;;;61.20;38.90;;;3.20;93.00;;;;;;5021662;28;20328;-68
2022/01/10 07:13:24;;;;;;;66.13;40.40;;;3.20;92.90;;;;;;5040292;28;20242;-68
2022/01/10 07:15:53;;;;;;;64.63;38.37;;;3.20;92.90;;;;;;5039336;28;20545;-68
2022/01/10 07:18:20;;;;;;;58.63;36.57;;;3.20;92.90;;;;;;5028576;28;20647;-68
2022/01/10 07:20:52;;;;;;;54.20;35.33;;;3.20;92.90;;;;;;5023612;28;20661;-68
2022/01/10 07:23:22;;;;;;;58.20;36.40;;;3.20;92.80;;;;;;5040183;28;20249;-68
2022/01/10 07:25:50;;;;;;;57.10;36.47;;;3.30;92.80;;;;;;5043109;28;20925;-68
2022/01/10 07:28:18;;;;;;;60.73;38.53;;;3.30;92.80;;;;;;5059912;28;20261;-68
2022/01/10 07:30:45;;;;;;;57.63;37.43;;;3.30;92.80;;;;;;5059504;28;20225;-68
2022/01/10 07:33:12;;;;;;;57.67;36.93;;;3.30;92.80;;;;;;5042759;28;20229;-68
2022/01/10 07:35:39;;;;;;;54.53;35.27;;;3.40;92.80;;;;;;5060036;28;20207;-68
2022/01/10 07:38:06;;;;;;;55.73;33.07;;;3.40;92.80;;;;;;5043139;28;20284;-69
2022/01/10 07:40:33;;;;;;;54.00;35.47;;;3.50;92.70;;;;;;5061188;28;20199;-70
2022/01/10 07:43:00;;;;;;;51.90;34.33;;;3.50;92.70;;;;;;5059005;28;20211;-69
2022/01/10 07:45:36;;;;;;;50.83;32.87;;;3.60;92.60;;;;;;5041710;28;20222;-68
2022/01/10 07:48:04;;;;;;;52.30;33.63;;;3.60;92.50;;;;;;5056852;28;20212;-68
2022/01/10 07:50:31;;;;;;;48.87;32.53;;;3.70;92.50;;;;;;5035699;28;20227;-68
2022/01/10 07:52:58;;;;;;;50.47;31.73;;;3.80;92.40;;;;;;5039813;28;20215;-68
2022/01/10 07:55:25;;;;;;;46.33;30.67;;;3.80;92.40;;;;;;5056135;28;20238;-69
2022/01/10 07:57:53;;;;;;;45.67;29.20;;;3.80;92.30;;;;;;5040340;28;20215;-70
2022/01/10 08:00:20;;;;;;;47.63;29.93;;;3.90;92.20;;;;;;5040647;28;20225;-69
2022/01/10 08:02:47;;;;;;;41.90;28.87;;;3.90;92.10;;;;;;5039906;28;20262;-68
2022/01/10 08:05:14;;;;;;;45.43;28.70;;;3.90;92.00;;;;;;5036554;28;20215;-69
2022/01/10 08:07:42;;;;;;;45.37;28.83;;;4.00;91.90;;;;;;5036213;28;20619;-69
2022/01/10 08:10:09;;;;;;;48.00;30.23;;;4.00;92.00;;;;;;5055393;28;20216;-69
2022/01/10 08:12:37;;;;;;;45.87;29.13;;;4.00;91.90;;;;;;5053574;28;20207;-69
2022/01/10 08:15:04;;;;;;;43.53;29.03;;;4.20;91.90;;;;;;5037634;28;20530;-69
2022/01/10 08:17:31;;;;;;;40.27;27.50;;;4.20;91.90;;;;;;5037850;28;20264;-69
2022/01/10 08:19:59;;;;;;;41.63;28.20;;;4.30;91.80;;;;;;5055734;28;20208;-69
2022/01/10 08:22:26;;;;;;;46.77;28.90;;;4.40;91.70;;;;;;5055365;28;20206;-69
2022/01/10 08:24:53;;;;;;;43.27;28.87;;;4.40;91.50;;;;;;5021701;28;20708;-69
2022/01/10 08:27:20;;;;;;;47.73;30.97;;;4.50;91.50;;;;;;5021406;28;20241;-69
2022/01/10 08:29:48;;;;;;;42.47;28.97;;;4.50;91.50;;;;;;5055663;28;20231;-69
2022/01/10 08:32:18;;;;;;;43.97;29.17;;;4.50;91.40;;;;;;5054358;28;20239;-69
2022/01/10 08:34:46;;;;;;;43.27;29.73;;;4.70;91.40;;;;;;5050450;28;20205;-69
2022/01/10 08:37:13;;;;;;;46.73;30.70;;;4.70;91.30;;;;;;5034357;28;20221;-69
2022/01/10 08:39:40;;;;;;;42.10;30.67;;;4.80;91.20;;;;;;5035242;28;20699;-69
2022/01/10 08:42:08;;;;;;;45.13;29.83;;;4.90;91.20;;;;;;5024578;28;20213;-69
2022/01/10 08:44:35;;;;;;;43.67;30.00;;;5.10;91.10;;;;;;5033671;28;20232;-69
2022/01/10 08:47:02;;;;;;;46.40;30.87;;;5.10;90.80;;;;;;5031891;28;20532;-69
2022/01/10 08:49:29;;;;;;;47.37;31.53;;;5.20;90.70;;;;;;5035358;28;20582;-69
2022/01/10 08:51:57;;;;;;;48.93;31.90;;;5.20;90.60;;;;;;5051030;28;20239;-69
2022/01/10 08:54:25;;;;;;;43.90;32.40;;;5.20;90.60;;;;;;5053369;28;20199;-69
2022/01/10 08:56:53;;;;;;;46.43;30.07;;;5.30;90.60;;;;;;5037121;28;20247;-69
2022/01/10 08:59:20;;;;;;;45.93;30.90;;;5.30;90.50;;;;;;5053917;28;20258;-69
2022/01/10 09:01:47;;;;;;;46.53;32.10;;;5.40;90.30;;;;;;5055139;28;20577;-69
2022/01/10 09:04:16;;;;;;;46.17;31.00;;;5.40;90.30;;;;;;5049184;28;20274;-69
2022/01/10 09:06:44;;;;;;;47.90;30.53;;;5.40;90.30;;;;;;5036393;28;20211;-69
2022/01/10 09:09:12;;;;;;;46.40;30.67;;;5.50;90.30;;;;;;5040127;28;20208;-69
2022/01/10 09:11:40;;;;;;;44.20;31.10;;;5.50;90.20;;;;;;5033921;28;20220;-69
2022/01/10 09:14:08;;;;;;;46.13;32.33;;;5.60;90.00;;;;;;5057922;28;20257;-69
2022/01/10 09:16:35;;;;;;;45.17;30.53;;;5.60;89.70;;;;;;5054723;28;20208;-69
2022/01/10 09:19:03;;;;;;;42.33;29.60;;;5.60;89.50;;;;;;5034361;28;20207;-69
2022/01/10 09:21:30;;;;;;;44.63;29.43;;;5.60;89.30;;;;;;5051230;28;20207;-69
2022/01/10 09:24:00;;;;;;;44.13;28.77;;;5.60;89.20;;;;;;5052079;28;20205;-69
2022/01/10 09:26:27;;;;;;;44.87;31.03;;;5.60;89.00;;;;;;5032384;28;20213;-69
2022/01/10 09:28:55;;;;;;;48.77;29.63;;;5.60;89.00;;;;;;5052469;28;20213;-69
2022/01/10 09:31:22;;;;;;;43.47;29.90;;;5.60;89.00;;;;;;5051752;28;20231;-69
2022/01/10 09:33:55;;;;;;;43.43;29.63;;;5.70;89.20;;;;;;5035233;28;20283;-69
2022/01/10 09:36:25;;;;;;;43.97;29.37;;;5.70;89.30;;;;;;5052235;28;20201;-69
2022/01/10 09:38:54;;;;;;;41.43;28.83;;;5.70;88.80;;;;;;5052743;28;20227;-68
2022/01/10 09:41:22;;;;;;;39.67;27.53;;;5.70;88.90;;;;;;5031841;28;20210;-68
2022/01/10 09:43:56;;;;;;;42.30;29.53;;;5.70;88.80;;;;;;5036141;28;20216;-68
2022/01/10 09:46:24;;;;;;;39.80;28.77;;;5.70;89.50;;;;;;5050000;28;20634;-68
2022/01/10 09:48:53;;;;;;;41.23;28.23;;;5.80;88.80;;;;;;5046467;28;20240;-69
2022/01/10 09:51:26;;;;;;;40.47;29.47;;;5.80;88.60;;;;;;5038283;28;20297;-68
2022/01/10 09:53:55;;;;;;;51.10;30.43;;;5.80;88.60;;;;;;5053261;28;20649;-68
2022/01/10 09:56:23;;;;;;;40.83;27.90;;;5.90;88.60;;;;;;5052389;28;20312;-69
2022/01/10 09:58:52;;;;;;;45.00;28.10;;;5.90;88.00;;;;;;5036117;28;20207;-69
2022/01/10 10:01:21;;;;;;;41.57;28.97;;;5.90;87.10;;;;;;5051184;28;20223;-69
2022/01/10 10:03:50;;;;;;;43.63;29.30;;;5.90;86.60;;;;;;5051967;28;20201;-69
2022/01/10 10:06:18;;;;;;;44.97;28.17;;;5.80;84.70;;;;;;5035807;28;20731;-69
2022/01/10 10:08:45;;;;;;;38.47;27.17;;;5.80;85.00;;;;;;5037438;28;20215;-69
2022/01/10 10:11:13;;;;;;;39.70;27.77;;;5.70;84.60;;;;;;5036022;28;20293;-69
2022/01/10 10:13:43;;;;;;;41.87;28.53;;;5.70;84.60;;;;;;5055138;28;20204;-69
2022/01/10 10:16:14;;;;;;;42.40;29.53;;;5.60;85.50;;;;;;5055068;28;20259;-69
2022/01/10 10:18:43;;;;;;;42.53;28.13;;;5.60;86.00;;;;;;5036088;28;20226;-69
2022/01/10 10:21:12;;;;;;;48.13;29.87;;;5.50;86.10;;;;;;5051704;28;20228;-70
2022/01/10 10:23:41;;;;;;;41.73;26.33;;;5.50;86.40;;;;;;5054099;28;20209;-69
2022/01/10 10:26:08;;;;;;;36.60;25.77;;;5.50;86.80;;;;;;5037514;28;20548;-69
2022/01/10 10:28:36;;;;;;;41.67;26.97;;;5.50;85.50;;;;;;5037345;28;20222;-69
2022/01/10 10:31:03;;;;;;;39.20;26.10;;;5.50;85.40;;;;;;5058028;28;20547;-69
2022/01/10 10:33:30;;;;;;;37.20;27.60;;;5.40;85.90;;;;;;5056495;28;20202;-69
2022/01/10 10:36:08;;;;;;;38.77;26.03;;;5.40;85.80;;;;;;5027142;28;20217;-69
2022/01/10 10:38:35;;;;;;;41.03;25.80;;;5.50;86.30;;;;;;5020854;28;20220;-70
2022/01/10 10:41:04;;;;;;;34.10;23.97;;;5.50;86.50;;;;;;5035398;28;20199;-69
2022/01/10 10:43:36;;;;;;;36.20;24.10;;;5.50;84.70;;;;;;5053534;28;20204;-70
2022/01/10 10:46:12;;;;;;;38.60;26.20;;;5.50;84.00;;;;;;5036271;28;20648;-70
2022/01/10 10:48:41;;;;;;;37.53;24.87;;;5.40;84.30;;;;;;5053430;28;20726;-70
2022/01/10 10:51:09;;;;;;;34.47;24.17;;;5.40;85.10;;;;;;5029866;28;20217;-69
2022/01/10 10:53:36;;;;;;;35.37;24.03;;;5.50;85.90;;;;;;5054938;28;20218;-69
2022/01/10 10:56:06;;;;;;;34.60;24.17;;;5.50;86.00;;;;;;5058589;28;20245;-69
2022/01/10 10:58:39;;;;;;;36.03;25.20;;;5.50;85.20;;;;;;5054257;28;20296;-70
2022/01/10 11:01:07;;;;;;;36.97;25.03;;;5.60;85.30;;;;;;5035936;28;20212;-70
2022/01/10 11:03:35;;;;;;;32.77;22.57;;;5.60;85.30;;;;;;5051124;28;20204;-69
2022/01/10 11:06:05;;;;;;;27.70;20.77;;;5.70;85.50;;;;;;5053976;28;20550;-69
2022/01/10 11:08:33;;;;;;;35.47;23.03;;;5.70;85.80;;;;;;5037721;28;20209;-69
2022/01/10 11:11:01;;;;;;;30.30;20.70;;;5.80;84.20;;;;;;5054202;28;20291;-70
2022/01/10 11:13:30;;;;;;;30.53;20.73;;;5.80;84.00;;;;;;5037032;28;20215;-69
2022/01/10 11:15:58;;;;;;;29.67;19.63;;;5.80;82.40;;;;;;5053309;28;20196;-70
2022/01/10 11:18:26;;;;;;;33.90;18.47;;;5.80;82.10;;;;;;5053668;28;20228;-69
2022/01/10 11:20:57;;;;;;;29.60;18.63;;;5.80;79.80;;;;;;5037901;28;20205;-69
2022/01/10 11:23:43;;;;;;;27.80;18.10;;;5.80;80.70;;;;;;5022308;28;20221;-70
2022/01/10 11:26:12;;;;;;;25.63;17.90;;;5.70;79.90;;;;;;5035961;28;20200;-70
2022/01/10 11:28:47;;;;;;;28.80;18.17;;;5.70;79.50;;;;;;5039397;28;20223;-69
2022/01/10 11:31:23;;;;;;;25.37;18.80;;;5.70;80.30;;;;;;5039634;28;20572;-69
2022/01/10 11:33:53;;;;;;;25.70;18.17;;;5.70;81.10;;;;;;5038890;28;20201;-69
2022/01/10 11:36:24;;;;;;;25.83;18.37;;;5.70;81.40;;;;;;5053103;28;20208;-69
2022/01/10 11:38:57;;;;;;;26.13;18.07;;;5.80;81.60;;;;;;5059430;28;20201;-69
2022/01/10 11:41:25;;;;;;;24.60;16.67;;;5.80;80.00;;;;;;5040458;28;20212;-69
2022/01/10 11:44:06;;;;;;;27.07;16.87;;;5.80;80.20;;;;;;5035372;28;20315;-68
2022/01/10 11:46:37;;;;;;;28.73;19.23;;;5.80;79.10;;;;;;5032088;28;20211;-69
2022/01/10 11:49:13;;;;;;;26.07;19.57;;;5.70;80.00;;;;;;5035417;28;20228;-68
2022/01/10 11:51:40;;;;;;;29.63;19.00;;;5.70;81.20;;;;;;5049388;28;20217;-68
2022/01/10 11:54:18;;;;;;;29.23;18.13;;;5.80;82.10;;;;;;5034379;28;20349;-68
2022/01/10 11:56:53;;;;;;;26.73;19.10;;;5.90;82.40;;;;;;5050957;28;20620;-68
2022/01/10 11:59:28;;;;;;;26.57;19.03;;;6.00;81.90;;;;;;5034485;28;20216;-68
2022/01/10 12:02:12;;;;;;;30.70;19.37;;;6.00;81.60;;;;;;5033789;28;20304;-68
2022/01/10 12:04:52;;;;;;;27.20;19.37;;;6.10;81.40;;;;;;5033075;28;20247;-68
2022/01/10 12:07:22;;;;;;;28.67;20.30;;;6.10;80.90;;;;;;5051196;28;20209;-70
2022/01/10 12:09:51;;;;;;;28.93;20.80;;;6.20;80.80;;;;;;5042244;28;20232;-69
2022/01/10 12:12:20;;;;;;;30.57;20.00;;;6.20;80.50;;;;;;5050971;28;20227;-69
2022/01/10 12:14:48;;;;;;;33.47;21.07;;;6.20;80.30;;;;;;5053129;28;20209;-69
2022/01/10 12:17:16;;;;;;;30.93;20.00;;;6.20;80.10;;;;;;5049828;28;20220;-69
2022/01/10 12:19:43;;;;;;;31.03;21.53;;;6.30;80.30;;;;;;5036157;28;20200;-69
2022/01/10 12:22:11;;;;;;;28.47;20.80;;;6.30;80.60;;;;;;5034703;28;20531;-69
2022/01/10 12:24:40;;;;;;;33.87;21.77;;;6.30;81.20;;;;;;5050814;28;20206;-69
2022/01/10 12:27:09;;;;;;;31.83;21.30;;;6.40;81.50;;;;;;5035574;28;20634;-69
2022/01/10 12:29:42;;;;;;;33.87;23.10;;;6.40;81.80;;;;;;5031793;28;20218;-68
2022/01/10 12:32:11;;;;;;;34.70;25.23;;;6.50;82.20;;;;;;5024978;28;20236;-68
2022/01/10 12:34:41;;;;;;;37.20;24.73;;;6.50;82.60;;;;;;5033183;28;20662;-69
2022/01/10 12:37:08;;;;;;;41.43;27.67;;;6.60;83.20;;;;;;5032658;28;20589;-69
2022/01/10 12:39:38;;;;;;;36.30;25.40;;;6.70;83.20;;;;;;5051359;28;20239;-69
2022/01/10 12:42:05;;;;;;;36.50;26.17;;;6.70;83.00;;;;;;5050016;28;20209;-68
2022/01/10 12:44:33;;;;;;;36.70;25.73;;;6.70;83.40;;;;;;5050196;28;20313;-68
2022/01/10 12:47:01;;;;;;;39.60;27.10;;;6.70;82.60;;;;;;5033508;28;20228;-68
2022/01/10 12:49:28;;;;;;;40.53;27.57;;;6.80;82.40;;;;;;5050377;28;20209;-68